Aviation Digital Data Service (ADDS)

Output produced by METARs form (0529 UTC 25 June 2017)
found at http://aviationweather.gov/adds/metars/
 
KECG 250017Z 2500/2524 23009KT P6SM VCTS BKN050CB BKN100 
     TEMPO 2500/2503 3SM -RA BR OVC025 
     FM250300 21006KT P6SM VCSH OVC035 
     FM250600 22005KT P6SM VCSH BKN070 
     FM251000 28004KT P6SM VCSH BKN090 
     FM251200 29006KT P6SM BKN200